createdAt,value
2024-01-17T00:00:45.494Z,82.47
2024-01-17T00:03:12.424Z,78.44
2024-01-17T00:05:39.193Z,84.53
2024-01-17T00:08:06.225Z,84.85
2024-01-17T00:10:32.897Z,83.38
2024-01-17T00:13:00.847Z,82.77
2024-01-17T00:15:27.436Z,82.17
2024-01-17T00:17:54.237Z,82.16
2024-01-17T00:20:20.865Z,82.25
2024-01-17T00:22:47.545Z,82.54
2024-01-17T00:25:14.172Z,82.48
2024-01-17T00:27:40.882Z,82.27
2024-01-17T00:30:10.011Z,82.56
2024-01-17T00:32:37.070Z,78.64
2024-01-17T00:35:04.158Z,82.91
2024-01-17T00:37:30.917Z,82.84
2024-01-17T00:39:57.618Z,82.24
2024-01-17T00:42:25.074Z,82.56
2024-01-17T00:44:51.805Z,82.49
2024-01-17T00:47:19.809Z,82.58
2024-01-17T00:49:46.537Z,75.49
2024-01-17T00:52:13.299Z,85.45
2024-01-17T00:54:39.955Z,85.17
2024-01-17T00:57:06.627Z,77.14
2024-01-17T00:59:33.394Z,84.15
2024-01-17T01:02:00.084Z,83.41
2024-01-17T01:04:28.049Z,82.82
2024-01-17T01:06:54.656Z,82.82
2024-01-17T01:09:21.564Z,82.94
2024-01-17T01:11:48.272Z,82.85
2024-01-17T01:14:15.016Z,82.98
2024-01-17T01:16:42.461Z,82.66
2024-01-17T01:19:09.242Z,83.08
2024-01-17T01:21:37.257Z,82.79
2024-01-17T01:24:04.870Z,82.88
2024-01-17T01:26:31.542Z,82.79
2024-01-17T01:28:58.193Z,82.97
2024-01-17T01:31:24.878Z,82.39
2024-01-17T01:33:51.612Z,80.28
2024-01-17T01:36:18.268Z,83.03
2024-01-17T01:38:46.229Z,77.99
2024-01-17T01:41:12.879Z,84.21
2024-01-17T01:43:39.498Z,80.57
2024-01-17T01:46:16.140Z,86.42
2024-01-17T01:48:44.255Z,84.41
2024-01-17T01:51:12.919Z,83.74
2024-01-17T01:53:42.372Z,80.63
2024-01-17T01:56:12.189Z,82.97
2024-01-17T01:58:40.868Z,82.88
2024-01-17T02:01:08.298Z,83.01
2024-01-17T02:03:35.766Z,80.46
2024-01-17T02:06:03.686Z,84.59
2024-01-17T02:08:30.429Z,83.87
2024-01-17T02:10:58.109Z,83.51
2024-01-17T02:13:26.604Z,83.37
2024-01-17T02:15:53.493Z,82.99
2024-01-17T02:18:20.377Z,79.57
2024-01-17T02:20:47.366Z,78.72
2024-01-17T02:23:23.902Z,85.37
2024-01-17T02:25:52.094Z,78.68
2024-01-17T02:28:18.717Z,84.42
2024-01-17T02:30:45.998Z,83.89
2024-01-17T02:33:14.055Z,83.63
2024-01-17T02:35:41.140Z,83.57
2024-01-17T02:38:07.897Z,83.10
2024-01-17T02:40:34.600Z,83.05
2024-01-17T02:43:02.743Z,83.58
2024-01-17T02:45:29.416Z,83.42
2024-01-17T02:47:56.051Z,83.62
2024-01-17T02:50:22.938Z,83.11
2024-01-17T02:52:49.638Z,80.67
2024-01-17T02:55:19.302Z,85.55
2024-01-17T02:57:46.515Z,80.07
2024-01-17T03:00:15.178Z,84.95
2024-01-17T03:02:41.933Z,84.33
2024-01-17T03:05:09.564Z,83.39
2024-01-17T03:07:36.314Z,83.71
2024-01-17T03:10:03.281Z,78.46
2024-01-17T03:12:30.030Z,84.23
2024-01-17T03:14:56.689Z,83.50
2024-01-17T03:17:24.907Z,83.91
2024-01-17T03:19:51.696Z,83.52
2024-01-17T03:22:18.521Z,83.22
2024-01-17T03:24:46.914Z,83.45
2024-01-17T03:27:14.509Z,79.91
2024-01-17T03:29:41.405Z,83.89
2024-01-17T03:32:08.757Z,83.50
2024-01-17T03:34:36.814Z,79.19
2024-01-17T03:37:06.158Z,83.94
2024-01-17T03:39:35.064Z,84.41
2024-01-17T03:42:01.987Z,83.90
2024-01-17T03:44:28.907Z,83.90
2024-01-17T03:46:55.664Z,83.53
2024-01-17T03:49:22.319Z,83.16
2024-01-17T03:51:50.441Z,83.52
2024-01-17T03:54:17.176Z,83.29
2024-01-17T03:56:44.226Z,82.63
2024-01-17T03:59:10.918Z,86.29
2024-01-17T04:01:43.632Z,83.07
2024-01-17T04:04:10.525Z,84.22
2024-01-17T04:06:37.256Z,83.61
2024-01-17T04:09:05.403Z,84.17
2024-01-17T04:11:32.062Z,83.03
2024-01-17T04:13:58.798Z,83.76
2024-01-17T04:16:25.495Z,84.99
2024-01-17T04:18:52.273Z,83.00
2024-01-17T04:21:19.787Z,85.06
2024-01-17T04:23:48.227Z,84.15
2024-01-17T04:26:24.594Z,81.00
2024-01-17T04:28:52.071Z,85.10
2024-01-17T04:31:26.106Z,84.02
2024-01-17T04:33:53.789Z,80.28
2024-01-17T04:36:21.361Z,83.74
2024-01-17T04:38:48.705Z,84.20
2024-01-17T04:41:16.441Z,81.24
2024-01-17T04:43:45.527Z,84.25
2024-01-17T04:46:13.720Z,81.43
2024-01-17T04:48:40.772Z,84.08
2024-01-17T04:51:09.056Z,81.40
2024-01-17T04:53:38.644Z,84.81
2024-01-17T04:56:08.979Z,84.31
2024-01-17T04:58:35.772Z,84.11
2024-01-17T05:01:04.156Z,84.33
2024-01-17T05:03:32.450Z,81.05
2024-01-17T05:06:00.646Z,83.08
2024-01-17T05:08:27.491Z,85.32
2024-01-17T05:10:54.406Z,86.17
2024-01-17T05:13:21.431Z,84.60
2024-01-17T05:15:48.149Z,83.67
2024-01-17T05:18:16.316Z,85.23
2024-01-17T05:20:43.131Z,84.49
2024-01-17T05:23:09.755Z,84.61
2024-01-17T05:25:36.434Z,83.94
2024-01-17T05:28:03.407Z,84.24
2024-01-17T05:30:30.142Z,84.12
2024-01-17T05:32:56.993Z,83.89
2024-01-17T05:35:25.358Z,81.66
2024-01-17T05:37:52.401Z,84.64
2024-01-17T05:40:19.249Z,84.04
2024-01-17T05:42:46.516Z,83.82
2024-01-17T05:45:13.512Z,82.46
2024-01-17T05:47:41.853Z,83.95
2024-01-17T05:50:10.374Z,83.75
2024-01-17T05:52:40.656Z,83.48
2024-01-17T05:55:08.489Z,84.11
2024-01-17T05:57:35.328Z,83.94
2024-01-17T06:00:02.514Z,83.66
2024-01-17T06:02:29.295Z,83.89
2024-01-17T06:04:56.175Z,83.60
2024-01-17T06:07:22.961Z,83.68
2024-01-17T06:09:50.960Z,84.07
2024-01-17T06:12:17.562Z,83.72
2024-01-17T06:14:44.260Z,83.92
2024-01-17T06:17:10.978Z,83.75
2024-01-17T06:19:37.661Z,83.93
2024-01-17T06:22:04.567Z,83.89
2024-01-17T06:24:31.211Z,84.32
2024-01-17T06:27:00.755Z,82.58
2024-01-17T06:29:31.561Z,81.05
2024-01-17T06:31:58.654Z,84.57
2024-01-17T06:34:25.354Z,85.05
2024-01-17T06:36:52.095Z,84.01
2024-01-17T06:39:18.806Z,85.50
2024-01-17T06:41:45.776Z,83.66
2024-01-17T06:44:13.857Z,85.39
2024-01-17T06:46:40.497Z,84.42
2024-01-17T06:49:07.254Z,84.11
2024-01-17T06:51:34.006Z,84.19
2024-01-17T06:54:00.746Z,83.81
2024-01-17T06:56:27.929Z,84.51
2024-01-17T06:58:54.621Z,84.09
2024-01-17T07:01:22.775Z,84.05
2024-01-17T07:03:49.577Z,82.28
2024-01-17T07:06:16.455Z,84.69
2024-01-17T07:08:43.351Z,83.81
2024-01-17T07:11:11.915Z,84.18
2024-01-17T07:13:41.490Z,84.07
2024-01-17T07:16:08.911Z,83.76
2024-01-17T07:18:37.056Z,83.51
2024-01-17T07:21:09.811Z,84.19
2024-01-17T07:23:38.618Z,84.10
2024-01-17T07:26:05.474Z,85.99
2024-01-17T07:28:32.162Z,84.34
2024-01-17T07:30:58.823Z,84.85
2024-01-17T07:33:25.672Z,83.52
2024-01-17T07:35:53.783Z,83.69
2024-01-17T07:38:20.436Z,86.45
2024-01-17T07:40:47.429Z,85.05
2024-01-17T07:43:14.166Z,83.50
2024-01-17T07:45:40.801Z,84.94
2024-01-17T07:48:07.656Z,85.89
2024-01-17T07:50:34.406Z,84.88
2024-01-17T07:53:02.475Z,85.04
2024-01-17T07:55:29.758Z,85.00
2024-01-17T07:57:56.454Z,86.81
2024-01-17T08:00:23.577Z,87.40
2024-01-17T08:02:50.878Z,89.32
2024-01-17T08:05:18.091Z,89.03
2024-01-17T08:07:44.733Z,89.74
2024-01-17T08:10:12.885Z,88.51
2024-01-17T08:12:39.594Z,89.29
2024-01-17T08:15:09.403Z,87.23
2024-01-17T08:17:36.452Z,85.93
2024-01-17T08:20:04.694Z,90.44
2024-01-17T08:22:31.341Z,88.97
2024-01-17T08:24:57.999Z,91.08
2024-01-17T08:27:26.013Z,86.78
2024-01-17T08:29:52.750Z,88.52
2024-01-17T08:32:19.388Z,91.03
2024-01-17T08:34:46.074Z,86.30
2024-01-17T08:37:12.944Z,90.37
2024-01-17T08:39:39.556Z,89.59
2024-01-17T08:42:06.377Z,91.63
2024-01-17T08:44:34.380Z,88.51
2024-01-17T08:47:01.057Z,93.02
2024-01-17T08:49:29.458Z,88.38
2024-01-17T08:51:56.080Z,85.81
2024-01-17T08:54:23.380Z,86.17
2024-01-17T08:56:50.234Z,85.11
2024-01-17T08:59:16.915Z,92.17
2024-01-17T09:01:44.878Z,92.07
2024-01-17T09:04:12.126Z,85.67
2024-01-17T09:06:38.887Z,85.86
2024-01-17T09:09:05.767Z,85.05
2024-01-17T09:11:33.256Z,91.20
2024-01-17T09:14:00.066Z,88.00
2024-01-17T09:16:26.679Z,92.73
2024-01-17T09:18:54.834Z,92.50
2024-01-17T09:21:22.423Z,86.61
2024-01-17T09:23:49.300Z,86.90
2024-01-17T09:26:17.541Z,89.38
2024-01-17T09:28:44.325Z,85.51
2024-01-17T09:31:11.051Z,87.60
2024-01-17T09:33:37.857Z,93.28
2024-01-17T09:36:07.366Z,90.84
2024-01-17T09:38:34.073Z,86.38
2024-01-17T09:41:00.776Z,85.89
2024-01-17T09:43:27.961Z,86.54
2024-01-17T09:45:56.310Z,90.34
2024-01-17T09:48:26.451Z,93.29
2024-01-17T09:50:53.401Z,94.31
2024-01-17T09:53:33.925Z,93.08
2024-01-17T09:56:02.973Z,89.10
2024-01-17T09:58:33.770Z,87.66
2024-01-17T10:01:02.524Z,93.41
2024-01-17T10:03:30.304Z,94.42
2024-01-17T10:05:58.249Z,94.55
2024-01-17T10:08:26.516Z,89.67
2024-01-17T10:10:53.155Z,87.23
2024-01-17T10:13:19.868Z,93.31
2024-01-17T10:15:46.928Z,93.81
2024-01-17T10:18:13.886Z,92.94
2024-01-17T10:20:40.884Z,95.49
2024-01-17T10:23:08.431Z,95.31
2024-01-17T10:25:40.373Z,89.79
2024-01-17T10:28:10.317Z,91.00
2024-01-17T10:30:38.005Z,87.65
2024-01-17T10:33:05.823Z,86.63
2024-01-17T10:35:32.555Z,93.78
2024-01-17T10:37:59.317Z,92.10
2024-01-17T10:40:26.685Z,89.25
2024-01-17T10:43:06.558Z,94.42
2024-01-17T10:45:36.217Z,88.61
2024-01-17T10:48:02.912Z,93.92
2024-01-17T10:50:30.590Z,92.46
2024-01-17T10:53:02.346Z,87.43
2024-01-17T10:55:30.731Z,86.79
2024-01-17T10:58:02.088Z,91.13
2024-01-17T11:00:32.709Z,94.64
2024-01-17T11:03:01.148Z,90.81
2024-01-17T11:05:31.575Z,94.27
2024-01-17T11:08:00.561Z,91.44
2024-01-17T11:10:29.260Z,94.94
2024-01-17T11:12:56.681Z,95.82
2024-01-17T11:15:26.038Z,94.20
2024-01-17T11:17:55.416Z,90.60
2024-01-17T11:20:22.354Z,90.25
2024-01-17T11:22:50.555Z,95.18
2024-01-17T11:25:24.488Z,95.13
2024-01-17T11:28:00.251Z,94.11
2024-01-17T11:30:37.728Z,93.04
2024-01-17T11:33:09.660Z,95.32
2024-01-17T11:35:42.628Z,96.01
2024-01-17T11:38:28.528Z,94.48
2024-01-17T11:40:57.463Z,90.30
2024-01-17T11:43:27.449Z,95.35
2024-01-17T11:45:54.777Z,94.97
2024-01-17T11:48:25.338Z,96.58
2024-01-17T11:51:00.201Z,96.33
2024-01-17T11:53:27.983Z,95.31
2024-01-17T11:55:56.210Z,95.59
2024-01-17T11:58:23.306Z,96.20
2024-01-17T12:00:52.683Z,94.29
2024-01-17T12:03:32.755Z,92.13
2024-01-17T12:06:01.451Z,96.46
2024-01-17T12:08:28.841Z,95.82
2024-01-17T12:10:56.010Z,96.30
2024-01-17T12:13:23.289Z,95.33
2024-01-17T12:15:52.971Z,91.55
2024-01-17T12:18:21.290Z,96.11
2024-01-17T12:20:50.917Z,95.39
2024-01-17T12:23:19.439Z,95.27
2024-01-17T12:25:46.568Z,96.17
2024-01-17T12:28:18.596Z,94.11
2024-01-17T12:30:56.115Z,92.93
2024-01-17T12:33:25.940Z,95.02
2024-01-17T12:35:55.812Z,96.04
2024-01-17T12:38:22.554Z,94.77
2024-01-17T12:40:50.353Z,93.81
2024-01-17T12:43:18.568Z,95.91
2024-01-17T12:45:46.589Z,94.88
2024-01-17T12:48:13.578Z,90.94
2024-01-17T12:50:44.823Z,95.34
2024-01-17T12:53:13.545Z,94.21
2024-01-17T12:55:43.477Z,96.00
2024-01-17T12:58:12.380Z,94.82
2024-01-17T13:00:39.935Z,92.53
2024-01-17T13:03:08.109Z,92.07
2024-01-17T13:05:35.916Z,95.55
2024-01-17T13:08:10.867Z,95.03
2024-01-17T13:10:39.406Z,93.72
2024-01-17T13:13:08.917Z,96.31
2024-01-17T13:15:36.839Z,91.65
2024-01-17T13:18:04.696Z,90.85
2024-01-17T13:20:31.634Z,94.91
2024-01-17T13:22:58.650Z,92.13
2024-01-17T13:25:25.938Z,89.98
2024-01-17T13:27:59.297Z,94.75
2024-01-17T13:30:26.658Z,93.77
2024-01-17T13:32:53.645Z,91.64
2024-01-17T13:35:20.331Z,95.74
2024-01-17T13:37:47.453Z,93.56
2024-01-17T13:40:14.398Z,92.60
2024-01-17T13:42:41.569Z,93.99
2024-01-17T13:45:12.360Z,93.09
2024-01-17T13:47:41.478Z,94.54
2024-01-17T13:50:17.728Z,93.49
2024-01-17T13:52:51.513Z,90.33
2024-01-17T13:55:19.383Z,94.03
2024-01-17T13:57:47.233Z,91.50
2024-01-17T14:00:16.629Z,94.41
2024-01-17T14:02:43.976Z,94.13
2024-01-17T14:05:11.352Z,90.93
2024-01-17T14:07:39.018Z,94.39
2024-01-17T14:10:08.800Z,91.45
2024-01-17T14:12:35.282Z,94.73
2024-01-17T14:15:02.103Z,89.98
2024-01-17T14:17:30.200Z,88.38
2024-01-17T14:19:58.757Z,88.03
2024-01-17T14:22:25.447Z,94.00
2024-01-17T14:24:53.059Z,90.58
2024-01-17T14:27:20.350Z,93.16
2024-01-17T14:29:49.556Z,89.75
2024-01-17T14:32:16.262Z,92.26
2024-01-17T14:34:44.911Z,92.41
2024-01-17T14:37:12.146Z,93.81
2024-01-17T14:39:40.146Z,92.00
2024-01-17T14:42:06.987Z,93.44
2024-01-17T14:44:33.798Z,91.34
2024-01-17T14:47:00.410Z,93.92
2024-01-17T14:49:27.080Z,94.07
2024-01-17T14:51:55.063Z,90.59
2024-01-17T14:54:21.768Z,93.88
2024-01-17T14:56:49.282Z,94.12
2024-01-17T14:59:16.043Z,89.46
2024-01-17T15:01:46.047Z,88.41
2024-01-17T15:04:12.700Z,92.80
2024-01-17T15:06:39.658Z,88.81
2024-01-17T15:09:13.559Z,91.75
2024-01-17T15:11:41.813Z,88.13
2024-01-17T15:14:08.532Z,87.70
2024-01-17T15:16:35.139Z,90.94
2024-01-17T15:19:01.886Z,91.58
2024-01-17T15:21:28.588Z,90.25
2024-01-17T15:23:55.446Z,87.88
2024-01-17T15:26:24.831Z,87.68
2024-01-17T15:28:51.465Z,92.74
2024-01-17T15:31:18.156Z,92.48
2024-01-17T15:33:44.942Z,88.55
2024-01-17T15:36:11.949Z,90.09
2024-01-17T15:38:45.320Z,92.11
2024-01-17T15:41:12.101Z,88.76
2024-01-17T15:43:40.126Z,87.92
2024-01-17T15:46:07.237Z,89.71
2024-01-17T15:48:35.706Z,91.62
2024-01-17T15:51:03.243Z,87.31
2024-01-17T15:53:31.158Z,87.63
2024-01-17T15:55:57.802Z,89.40
2024-01-17T15:58:25.497Z,87.07
2024-01-17T16:00:53.625Z,87.31
2024-01-17T16:03:21.556Z,90.55
2024-01-17T16:05:48.876Z,91.01
2024-01-17T16:08:15.823Z,87.72
2024-01-17T16:10:42.930Z,91.88
2024-01-17T16:13:11.313Z,92.18
2024-01-17T16:15:37.967Z,90.03
2024-01-17T16:18:07.187Z,92.82
2024-01-17T16:20:33.960Z,88.92
2024-01-17T16:23:01.383Z,87.79
2024-01-17T16:25:28.076Z,87.59
2024-01-17T16:27:56.039Z,87.42
2024-01-17T16:30:24.663Z,90.27
2024-01-17T16:32:52.203Z,87.38
2024-01-17T16:35:20.413Z,90.68
2024-01-17T16:37:47.058Z,92.05
2024-01-17T16:40:16.468Z,88.88
2024-01-17T16:42:43.694Z,88.30
2024-01-17T16:45:11.826Z,91.09
2024-01-17T16:47:40.632Z,87.69
2024-01-17T16:50:07.792Z,86.95
2024-01-17T16:52:35.765Z,88.08
2024-01-17T16:55:03.213Z,90.39
2024-01-17T16:57:29.888Z,87.43
2024-01-17T16:59:56.817Z,90.78
2024-01-17T17:02:23.976Z,87.19
2024-01-17T17:04:50.747Z,88.16
2024-01-17T17:07:17.395Z,89.66
2024-01-17T17:09:45.388Z,90.31
2024-01-17T17:12:12.039Z,87.54
2024-01-17T17:14:38.710Z,90.56
2024-01-17T17:17:05.330Z,91.71
2024-01-17T17:19:31.956Z,87.72
2024-01-17T17:21:59.549Z,91.20
2024-01-17T17:24:26.312Z,88.78
2024-01-17T17:26:55.264Z,91.05
2024-01-17T17:29:22.503Z,88.79
2024-01-17T17:31:49.193Z,92.38
2024-01-17T17:34:16.070Z,90.95
2024-01-17T17:36:42.816Z,87.98
2024-01-17T17:39:11.626Z,89.00
2024-01-17T17:41:39.987Z,86.79
2024-01-17T17:44:08.128Z,87.24
2024-01-17T17:46:37.205Z,87.69
2024-01-17T17:49:04.117Z,91.40
2024-01-17T17:51:32.232Z,91.56
2024-01-17T17:53:59.158Z,87.92
2024-01-17T17:56:26.919Z,92.33
2024-01-17T17:58:53.711Z,89.63
2024-01-17T18:01:21.778Z,87.65
2024-01-17T18:03:48.639Z,92.41
2024-01-17T18:06:15.456Z,86.94
2024-01-17T18:08:43.810Z,90.12
2024-01-17T18:11:13.735Z,90.58
2024-01-17T18:13:46.029Z,91.41
2024-01-17T18:16:18.426Z,87.90
2024-01-17T18:18:47.043Z,87.33
2024-01-17T18:21:13.945Z,86.76
2024-01-17T18:23:40.685Z,87.86
2024-01-17T18:26:07.322Z,86.43
2024-01-17T18:28:35.743Z,86.49
2024-01-17T18:31:03.120Z,89.55
2024-01-17T18:33:30.000Z,88.72
2024-01-17T18:35:58.132Z,86.82
2024-01-17T18:38:24.813Z,86.47
2024-01-17T18:40:51.494Z,90.10
2024-01-17T18:43:21.940Z,86.60
2024-01-17T18:45:50.641Z,89.13
2024-01-17T18:48:17.310Z,88.76
2024-01-17T18:50:44.461Z,88.62
2024-01-17T18:53:12.587Z,90.62
2024-01-17T18:55:41.864Z,89.81
2024-01-17T18:58:12.372Z,86.96
2024-01-17T19:00:39.286Z,86.59
2024-01-17T19:03:07.053Z,88.28
2024-01-17T19:05:34.787Z,90.53
2024-01-17T19:08:01.627Z,87.38
2024-01-17T19:10:29.613Z,88.33
2024-01-17T19:12:56.293Z,89.92
2024-01-17T19:15:23.059Z,86.77
2024-01-17T19:17:49.872Z,86.43
2024-01-17T19:20:16.815Z,86.43
2024-01-17T19:22:43.472Z,89.50
2024-01-17T19:25:12.019Z,87.46
2024-01-17T19:27:40.250Z,86.75
2024-01-17T19:30:08.636Z,89.88
2024-01-17T19:32:35.411Z,89.88
2024-01-17T19:35:02.227Z,87.57
2024-01-17T19:37:28.879Z,87.45
2024-01-17T19:39:55.789Z,87.28
2024-01-17T19:42:22.738Z,88.83
2024-01-17T19:44:51.444Z,90.81
2024-01-17T19:47:18.276Z,89.81
2024-01-17T19:49:45.421Z,88.10
2024-01-17T19:52:13.291Z,89.62
2024-01-17T19:54:40.064Z,88.27
2024-01-17T19:57:06.749Z,89.31
2024-01-17T19:59:33.474Z,87.66
2024-01-17T20:02:01.419Z,88.17
2024-01-17T20:04:28.201Z,90.95
2024-01-17T20:06:54.872Z,88.85
2024-01-17T20:09:22.166Z,87.73
2024-01-17T20:11:49.016Z,88.75
2024-01-17T20:14:15.647Z,87.86
2024-01-17T20:16:42.288Z,87.21
2024-01-17T20:19:10.619Z,89.56
2024-01-17T20:21:37.371Z,89.53
2024-01-17T20:24:04.241Z,88.58
2024-01-17T20:26:30.876Z,90.55
2024-01-17T20:28:58.413Z,89.33
2024-01-17T20:31:25.222Z,88.81
2024-01-17T20:33:52.159Z,87.83
2024-01-17T20:36:20.461Z,87.54
2024-01-17T20:38:47.703Z,87.55
2024-01-17T20:41:17.757Z,89.24
2024-01-17T20:43:45.091Z,89.92
2024-01-17T20:46:11.819Z,87.93
2024-01-17T20:48:38.539Z,87.36
2024-01-17T20:51:05.808Z,87.21
2024-01-17T20:53:35.829Z,87.07
2024-01-17T20:56:02.469Z,87.42
2024-01-17T20:58:29.154Z,87.30
2024-01-17T21:00:55.851Z,87.18
2024-01-17T21:03:22.490Z,87.41
2024-01-17T21:05:49.171Z,87.33
2024-01-17T21:08:15.888Z,87.47
2024-01-17T21:10:46.728Z,87.37
2024-01-17T21:13:13.329Z,86.97
2024-01-17T21:15:39.918Z,88.80
2024-01-17T21:18:06.703Z,88.09
2024-01-17T21:20:36.641Z,87.92
2024-01-17T21:23:03.807Z,89.07
2024-01-17T21:25:30.648Z,89.09
2024-01-17T21:27:58.628Z,87.48
2024-01-17T21:30:25.277Z,88.47
2024-01-17T21:32:52.663Z,87.82
2024-01-17T21:35:19.441Z,87.33
2024-01-17T21:37:46.480Z,88.13
2024-01-17T21:40:13.389Z,87.52
2024-01-17T21:42:40.200Z,86.77
2024-01-17T21:45:09.765Z,88.06
2024-01-17T21:47:36.604Z,86.93
2024-01-17T21:50:04.526Z,88.22
2024-01-17T21:52:31.319Z,87.52
2024-01-17T21:54:57.948Z,87.06
2024-01-17T21:57:25.166Z,89.16
2024-01-17T21:59:53.124Z,88.59
2024-01-17T22:02:21.184Z,87.35
2024-01-17T22:04:48.047Z,87.91
2024-01-17T22:07:15.438Z,87.23
2024-01-17T22:09:42.294Z,86.92
2024-01-17T22:12:09.682Z,88.73
2024-01-17T22:14:36.347Z,88.33
2024-01-17T22:17:03.130Z,87.20
2024-01-17T22:19:31.791Z,89.88
2024-01-17T22:21:58.481Z,89.69
2024-01-17T22:24:27.473Z,87.79
2024-01-17T22:26:54.328Z,87.42
2024-01-17T22:29:20.999Z,86.99
2024-01-17T22:31:47.666Z,86.94
2024-01-17T22:34:14.630Z,89.16
2024-01-17T22:36:43.294Z,90.04
2024-01-17T22:39:11.496Z,89.96
2024-01-17T22:41:42.581Z,87.68
2024-01-17T22:44:09.245Z,87.16
2024-01-17T22:46:35.969Z,86.76
2024-01-17T22:49:02.654Z,89.19
2024-01-17T22:51:29.328Z,88.72
2024-01-17T22:53:57.354Z,89.16
2024-01-17T22:56:24.300Z,87.08
2024-01-17T22:58:50.987Z,86.98
2024-01-17T23:01:17.618Z,86.75
2024-01-17T23:03:45.441Z,88.35
2024-01-17T23:06:12.257Z,86.89
2024-01-17T23:08:38.914Z,86.70
2024-01-17T23:11:16.460Z,86.74
2024-01-17T23:13:51.136Z,87.17
2024-01-17T23:16:17.855Z,86.69
2024-01-17T23:18:44.787Z,86.66
2024-01-17T23:21:11.594Z,88.11
2024-01-17T23:23:38.604Z,86.92
2024-01-17T23:26:05.422Z,88.79
2024-01-17T23:28:33.369Z,86.56
2024-01-17T23:31:00.196Z,88.65
2024-01-17T23:33:27.045Z,89.92
2024-01-17T23:35:53.786Z,90.03
2024-01-17T23:38:20.453Z,88.35
2024-01-17T23:40:47.177Z,90.08
2024-01-17T23:43:13.804Z,87.81
2024-01-17T23:45:41.974Z,89.76
2024-01-17T23:48:09.579Z,87.66
2024-01-17T23:50:36.398Z,86.91
2024-01-17T23:53:03.286Z,86.96
2024-01-17T23:55:29.903Z,86.82
2024-01-17T23:57:56.718Z,86.57
